createdAt,value
2022-10-05T00:01:48.806Z,1.37
2022-10-05T00:04:21.696Z,1.83
2022-10-05T00:06:58.013Z,1.90
2022-10-05T00:09:24.744Z,2.03
2022-10-05T00:11:51.679Z,1.53
2022-10-05T00:14:29.894Z,1.60
2022-10-05T00:16:57.379Z,1.73
2022-10-05T00:19:33.172Z,1.80
2022-10-05T00:22:06.334Z,1.40
2022-10-05T00:24:33.081Z,1.63
2022-10-05T00:27:01.725Z,1.57
2022-10-05T00:29:28.634Z,1.80
2022-10-05T00:31:55.407Z,1.30
2022-10-05T00:34:22.199Z,1.40
2022-10-05T00:36:49.169Z,2.00
2022-10-05T00:39:18.300Z,1.90
2022-10-05T00:42:13.075Z,1.30
2022-10-05T00:44:48.857Z,2.07
2022-10-05T00:47:30.942Z,1.43
2022-10-05T00:50:15.353Z,1.80
2022-10-05T00:53:05.658Z,1.70
2022-10-05T00:55:53.339Z,1.80
2022-10-05T00:58:38.200Z,1.40
2022-10-05T01:01:17.742Z,1.43
2022-10-05T01:04:13.127Z,1.77
2022-10-05T01:07:12.288Z,1.40
2022-10-05T01:10:03.808Z,1.93
2022-10-05T01:12:37.236Z,1.40
2022-10-05T01:15:24.129Z,1.60
2022-10-05T01:18:06.028Z,2.00
2022-10-05T01:20:54.405Z,1.60
2022-10-05T01:23:41.924Z,1.60
2022-10-05T01:26:30.359Z,1.53
2022-10-05T01:29:11.611Z,1.60
2022-10-05T01:31:47.790Z,1.50
2022-10-05T01:34:20.321Z,1.87
2022-10-05T01:37:01.100Z,2.00
2022-10-05T01:39:47.866Z,1.80
2022-10-05T01:42:22.248Z,1.63
2022-10-05T01:44:55.806Z,1.87
2022-10-05T01:47:38.561Z,2.20
2022-10-05T01:50:21.411Z,1.70
2022-10-05T01:53:03.353Z,1.83
2022-10-05T01:55:40.499Z,1.70
2022-10-05T01:58:31.838Z,1.90
2022-10-05T02:01:38.416Z,1.60
2022-10-05T02:04:37.035Z,1.60
2022-10-05T02:07:10.546Z,1.83
2022-10-05T02:09:46.189Z,1.77
2022-10-05T02:12:19.498Z,1.90
2022-10-05T02:14:52.586Z,1.87
2022-10-05T02:17:37.322Z,1.70
2022-10-05T02:20:09.283Z,1.63
2022-10-05T02:22:45.028Z,1.70
2022-10-05T02:25:19.620Z,1.43
2022-10-05T02:28:25.179Z,1.83
2022-10-05T02:31:05.664Z,1.73
2022-10-05T02:33:34.277Z,1.87
2022-10-05T02:36:26.517Z,1.97
2022-10-05T02:39:15.268Z,1.87
2022-10-05T02:41:44.798Z,1.70
2022-10-05T02:44:38.620Z,1.30
2022-10-05T02:47:28.288Z,1.60
2022-10-05T02:50:27.605Z,1.50
2022-10-05T02:53:15.717Z,1.53
2022-10-05T02:55:45.374Z,1.70
2022-10-05T02:58:15.670Z,1.47
2022-10-05T03:01:15.246Z,2.03
2022-10-05T03:04:14.707Z,1.57
2022-10-05T03:07:16.145Z,2.30
2022-10-05T03:09:52.610Z,2.00
2022-10-05T03:12:39.493Z,1.70
2022-10-05T03:15:52.636Z,1.70
2022-10-05T03:18:57.502Z,1.73
2022-10-05T03:21:44.011Z,1.57
2022-10-05T03:24:19.767Z,1.80
2022-10-05T03:27:12.945Z,1.57
2022-10-05T03:30:06.515Z,1.37
2022-10-05T03:32:42.284Z,1.30
2022-10-05T03:35:20.115Z,1.80
2022-10-05T03:38:07.467Z,1.63
2022-10-05T03:40:44.774Z,2.23
2022-10-05T03:43:32.768Z,1.53
2022-10-05T03:46:08.523Z,1.67
2022-10-05T03:48:49.805Z,2.00
2022-10-05T03:51:23.875Z,1.47
2022-10-05T03:53:59.924Z,1.70
2022-10-05T03:56:47.050Z,1.53
2022-10-05T03:59:17.315Z,1.63
2022-10-05T04:01:48.646Z,1.67
2022-10-05T04:04:50.671Z,1.57
2022-10-05T04:07:54.798Z,1.90
2022-10-05T04:10:29.055Z,1.47
2022-10-05T04:13:11.962Z,1.47
2022-10-05T04:16:12.571Z,1.73
2022-10-05T04:18:50.667Z,1.83
2022-10-05T04:21:32.480Z,1.80
2022-10-05T04:24:25.935Z,2.00
2022-10-05T04:26:57.574Z,2.17
2022-10-05T04:29:43.238Z,1.87
2022-10-05T04:32:15.478Z,1.53
2022-10-05T04:35:00.677Z,1.70
2022-10-05T04:37:55.605Z,1.57
2022-10-05T04:40:25.371Z,2.00
2022-10-05T04:43:05.146Z,2.03
2022-10-05T04:46:08.794Z,2.17
2022-10-05T04:48:47.989Z,1.77
2022-10-05T04:51:30.582Z,1.90
2022-10-05T04:54:11.557Z,1.80
2022-10-05T04:57:09.732Z,2.50
2022-10-05T05:00:00.611Z,1.60
2022-10-05T05:02:47.396Z,2.77
2022-10-05T05:05:31.610Z,1.90
2022-10-05T05:08:19.498Z,2.30
2022-10-05T05:11:16.744Z,1.80
2022-10-05T05:14:09.173Z,2.30
2022-10-05T05:16:45.900Z,1.93
2022-10-05T05:19:41.432Z,2.00
2022-10-05T05:22:31.632Z,2.13
2022-10-05T05:25:35.373Z,2.20
2022-10-05T05:28:29.862Z,2.03
2022-10-05T05:31:02.852Z,2.20
2022-10-05T05:33:55.503Z,1.70
2022-10-05T05:36:36.957Z,1.57
2022-10-05T05:39:06.722Z,1.80
2022-10-05T05:41:58.373Z,2.23
2022-10-05T05:44:52.497Z,1.80
2022-10-05T05:47:20.118Z,2.33
2022-10-05T05:49:59.984Z,2.20
2022-10-05T05:52:45.220Z,2.00
2022-10-05T05:55:16.065Z,1.90
2022-10-05T05:57:58.541Z,1.77
2022-10-05T06:00:32.649Z,2.03
2022-10-05T06:03:15.648Z,1.87
2022-10-05T06:05:50.380Z,1.80
2022-10-05T06:08:47.959Z,1.80
2022-10-05T06:11:32.829Z,2.10
2022-10-05T06:14:05.337Z,1.80
2022-10-05T06:16:40.692Z,1.80
2022-10-05T06:19:21.272Z,1.87
2022-10-05T06:21:58.613Z,1.97
2022-10-05T06:24:36.823Z,1.70
2022-10-05T06:27:26.606Z,1.70
2022-10-05T06:30:07.360Z,2.07
2022-10-05T06:33:04.822Z,1.80
2022-10-05T06:36:11.935Z,1.97
2022-10-05T06:38:59.869Z,2.30
2022-10-05T06:42:05.041Z,2.00
2022-10-05T06:44:39.546Z,2.07
2022-10-05T06:47:37.178Z,1.80
2022-10-05T06:50:12.609Z,2.27
2022-10-05T06:53:07.096Z,2.33
2022-10-05T06:55:52.803Z,2.30
2022-10-05T06:58:47.676Z,1.70
2022-10-05T07:01:17.417Z,1.80
2022-10-05T07:04:13.991Z,2.40
2022-10-05T07:06:55.222Z,2.20
2022-10-05T07:09:44.024Z,1.80
2022-10-05T07:12:18.496Z,2.03
2022-10-05T07:14:48.188Z,2.03
2022-10-05T07:17:45.540Z,1.77
2022-10-05T07:20:38.507Z,2.33
2022-10-05T07:23:11.814Z,1.73
2022-10-05T07:25:54.189Z,2.10
2022-10-05T07:28:38.143Z,1.57
2022-10-05T07:31:30.933Z,1.87
2022-10-05T07:34:09.727Z,3.30
2022-10-05T07:37:09.725Z,2.37
2022-10-05T07:39:59.631Z,2.47
2022-10-05T07:43:00.787Z,1.70
2022-10-05T07:45:45.978Z,1.67
2022-10-05T07:48:21.443Z,2.03
2022-10-05T07:51:11.405Z,2.47
2022-10-05T07:53:41.787Z,2.43
2022-10-05T07:56:40.171Z,1.97
2022-10-05T07:59:16.708Z,2.33
2022-10-05T08:01:48.638Z,2.00
2022-10-05T08:04:27.998Z,2.90
2022-10-05T08:07:02.608Z,2.40
2022-10-05T08:09:42.162Z,2.47
2022-10-05T08:12:28.035Z,2.00
2022-10-05T08:15:04.648Z,2.37
2022-10-05T08:17:48.604Z,2.83
2022-10-05T08:20:36.967Z,2.37
2022-10-05T08:23:24.046Z,2.10
2022-10-05T08:26:02.666Z,1.90
2022-10-05T08:28:40.408Z,2.40
2022-10-05T08:31:25.521Z,2.57
2022-10-05T08:34:07.699Z,2.30
2022-10-05T08:36:53.565Z,2.53
2022-10-05T08:39:22.270Z,2.00
2022-10-05T08:42:20.657Z,3.00
2022-10-05T08:44:50.471Z,2.07
2022-10-05T08:47:45.810Z,2.13
2022-10-05T08:50:12.632Z,2.10
2022-10-05T08:53:26.883Z,2.43
2022-10-05T08:56:28.597Z,2.57
2022-10-05T08:59:04.844Z,2.40
2022-10-05T09:01:53.407Z,2.23
2022-10-05T09:04:34.804Z,2.57
2022-10-05T09:07:41.182Z,2.20
2022-10-05T09:10:35.933Z,2.43
2022-10-05T09:13:24.423Z,2.80
2022-10-05T09:16:20.592Z,2.27
2022-10-05T09:18:56.024Z,2.00
2022-10-05T09:21:42.941Z,2.23
2022-10-05T09:24:09.698Z,2.83
2022-10-05T09:27:03.615Z,2.83
2022-10-05T09:30:04.899Z,2.80
2022-10-05T09:32:32.068Z,2.30
2022-10-05T09:35:23.385Z,2.60
2022-10-05T09:38:12.227Z,2.80
2022-10-05T09:40:47.473Z,3.30
2022-10-05T09:43:26.191Z,2.47
2022-10-05T09:46:12.957Z,2.53
2022-10-05T09:49:11.581Z,2.80
2022-10-05T09:52:06.449Z,2.90
2022-10-05T09:55:18.180Z,2.33
2022-10-05T09:57:54.238Z,2.47
2022-10-05T10:01:34.765Z,2.63
2022-10-05T10:04:10.745Z,3.57
2022-10-05T10:07:34.800Z,2.57
2022-10-05T10:10:32.431Z,2.40
2022-10-05T10:13:29.954Z,3.00
2022-10-05T10:16:23.803Z,2.57
2022-10-05T10:18:56.606Z,3.13
2022-10-05T10:21:33.996Z,2.70
2022-10-05T10:24:00.818Z,3.30
2022-10-05T10:26:48.784Z,3.20
2022-10-05T10:29:21.750Z,3.13
2022-10-05T10:32:07.669Z,3.17
2022-10-05T10:34:43.804Z,2.83
2022-10-05T10:37:34.576Z,2.67
2022-10-05T10:40:21.358Z,3.07
2022-10-05T10:43:22.160Z,2.67
2022-10-05T10:46:17.262Z,2.27
2022-10-05T10:49:16.830Z,2.57
2022-10-05T10:52:12.992Z,2.27
2022-10-05T10:55:06.056Z,2.63
2022-10-05T10:57:38.677Z,3.03
2022-10-05T11:00:19.259Z,2.37
2022-10-05T11:03:35.762Z,2.30
2022-10-05T11:06:27.678Z,2.37
2022-10-05T11:08:57.377Z,2.30
2022-10-05T11:12:02.106Z,3.37
2022-10-05T11:14:47.620Z,2.60
2022-10-05T11:17:29.434Z,2.43
2022-10-05T11:20:22.767Z,2.20
2022-10-05T11:23:05.617Z,3.20
2022-10-05T11:25:44.297Z,2.80
2022-10-05T11:28:36.936Z,2.90
2022-10-05T11:31:03.765Z,2.73
2022-10-05T11:33:56.760Z,2.93
2022-10-05T11:36:51.651Z,2.20
2022-10-05T11:39:42.645Z,3.03
2022-10-05T11:42:47.336Z,2.80
2022-10-05T11:45:26.235Z,2.77
2022-10-05T11:48:20.813Z,2.60
2022-10-05T11:51:15.304Z,3.40
2022-10-05T11:53:57.519Z,2.50
2022-10-05T11:56:35.996Z,2.83
2022-10-05T11:59:21.066Z,2.60
2022-10-05T12:02:18.512Z,2.37
2022-10-05T12:04:48.228Z,1.73
2022-10-05T12:07:39.033Z,2.00
2022-10-05T12:10:17.653Z,1.90
2022-10-05T12:12:56.958Z,2.10
2022-10-05T12:15:56.637Z,2.33
2022-10-05T12:18:52.324Z,2.40
2022-10-05T12:21:22.839Z,1.90
2022-10-05T12:24:01.857Z,1.43
2022-10-05T12:26:35.636Z,2.13
2022-10-05T12:29:13.787Z,1.60
2022-10-05T12:31:54.494Z,2.37
2022-10-05T12:34:27.400Z,1.97
2022-10-05T12:37:09.255Z,1.97
2022-10-05T12:39:51.080Z,1.73
2022-10-05T12:42:41.877Z,2.10
2022-10-05T12:45:24.400Z,1.10
2022-10-05T12:48:06.701Z,1.20
2022-10-05T12:50:40.964Z,1.37
2022-10-05T12:53:16.833Z,1.50
2022-10-05T12:56:12.799Z,1.40
2022-10-05T12:59:10.863Z,1.37
2022-10-05T13:02:45.068Z,1.40
2022-10-05T13:05:18.449Z,1.47
2022-10-05T13:08:17.810Z,1.40
2022-10-05T13:10:46.891Z,1.37
2022-10-05T13:13:21.848Z,2.03
2022-10-05T13:16:23.910Z,1.20
2022-10-05T13:18:56.690Z,0.43
2022-10-05T13:21:48.362Z,0.43
2022-10-05T13:24:24.814Z,0.60
2022-10-05T13:26:58.319Z,0.37
2022-10-05T13:29:34.730Z,0.70
2022-10-05T13:32:12.600Z,0.57
2022-10-05T13:34:45.118Z,0.20
2022-10-05T13:37:24.080Z,0.53
2022-10-05T13:40:21.851Z,0.60
2022-10-05T13:43:40.066Z,0.50
2022-10-05T13:46:33.318Z,0.60
2022-10-05T13:49:04.999Z,0.33
2022-10-05T13:51:56.219Z,0.30
2022-10-05T13:54:28.942Z,0.40
2022-10-05T13:57:18.629Z,0.90
2022-10-05T13:59:58.350Z,0.57
2022-10-05T14:02:31.242Z,0.87
2022-10-05T14:05:01.201Z,1.10
2022-10-05T14:07:49.670Z,0.40
2022-10-05T14:10:40.815Z,1.00
2022-10-05T14:13:19.383Z,0.67
2022-10-05T14:16:06.956Z,0.47
2022-10-05T14:18:38.612Z,0.70
2022-10-05T14:21:08.568Z,0.90
2022-10-05T14:23:35.723Z,0.50
2022-10-05T14:26:04.445Z,0.67
2022-10-05T14:28:34.014Z,0.83
2022-10-05T14:31:16.217Z,0.40
2022-10-05T14:33:43.802Z,0.63
2022-10-05T14:36:35.776Z,0.50
2022-10-05T14:39:05.148Z,0.70
2022-10-05T14:41:37.655Z,0.60
2022-10-05T14:44:20.520Z,0.77
2022-10-05T14:46:56.691Z,0.50
2022-10-05T14:49:36.197Z,0.53
2022-10-05T14:52:32.733Z,0.60
2022-10-05T14:55:05.360Z,0.43
2022-10-05T14:57:44.991Z,0.73
2022-10-05T15:00:19.901Z,0.20
2022-10-05T15:02:58.615Z,0.30
2022-10-05T15:05:34.729Z,0.40
2022-10-05T15:08:20.463Z,0.17
2022-10-05T15:10:57.777Z,0.43
2022-10-05T15:13:31.305Z,0.40
2022-10-05T15:16:04.540Z,0.40
2022-10-05T15:18:43.883Z,0.23
2022-10-05T15:21:29.491Z,0.20
2022-10-05T15:24:00.793Z,0.53
2022-10-05T15:26:45.041Z,0.40
2022-10-05T15:29:27.533Z,0.40
2022-10-05T15:32:16.269Z,0.40
2022-10-05T15:35:01.678Z,0.60
2022-10-05T15:37:40.200Z,0.30
2022-10-05T15:40:36.436Z,0.50
2022-10-05T15:43:10.800Z,0.57
2022-10-05T15:45:52.972Z,0.50
2022-10-05T15:48:25.321Z,0.40
2022-10-05T15:51:03.693Z,0.63
2022-10-05T15:53:52.473Z,0.40
2022-10-05T15:56:26.750Z,0.70
2022-10-05T15:59:17.650Z,0.57
2022-10-05T16:01:51.836Z,0.73
2022-10-05T16:04:30.145Z,0.40
2022-10-05T16:07:22.907Z,0.47
2022-10-05T16:10:08.001Z,0.57
2022-10-05T16:13:09.422Z,0.70
2022-10-05T16:15:58.093Z,0.70
2022-10-05T16:18:36.894Z,0.63
2022-10-05T16:21:14.360Z,0.50
2022-10-05T16:24:00.215Z,0.50
2022-10-05T16:26:36.643Z,0.67
2022-10-05T16:29:19.075Z,0.70
2022-10-05T16:32:07.656Z,0.93
2022-10-05T16:34:58.642Z,0.60
2022-10-05T16:38:10.290Z,0.67
2022-10-05T16:41:02.002Z,0.97
2022-10-05T16:43:52.972Z,0.70
2022-10-05T16:46:39.361Z,0.87
2022-10-05T16:49:32.952Z,0.77
2022-10-05T16:52:00.640Z,0.90
2022-10-05T16:54:27.527Z,0.40
2022-10-05T16:57:17.783Z,0.67
2022-10-05T17:00:12.175Z,0.80
2022-10-05T17:02:54.982Z,1.00
2022-10-05T17:05:31.068Z,1.00
2022-10-05T17:08:09.954Z,0.90
2022-10-05T17:10:50.508Z,1.13
2022-10-05T17:13:48.165Z,0.90
2022-10-05T17:16:43.139Z,0.87
2022-10-05T17:19:49.742Z,1.40
2022-10-05T17:22:50.920Z,1.37
2022-10-05T17:25:43.157Z,1.40
2022-10-05T17:28:18.766Z,0.90
2022-10-05T17:31:06.867Z,1.43
2022-10-05T17:33:56.736Z,1.40
2022-10-05T17:36:40.050Z,1.23
2022-10-05T17:39:43.361Z,1.40
2022-10-05T17:42:42.183Z,1.80
2022-10-05T17:45:14.893Z,1.60
2022-10-05T17:48:01.811Z,1.40
2022-10-05T17:51:04.018Z,1.73
2022-10-05T17:54:09.115Z,2.07
2022-10-05T17:56:47.998Z,2.23
2022-10-05T17:59:40.451Z,2.33
2022-10-05T18:02:36.838Z,1.47
2022-10-05T18:05:07.105Z,1.50
2022-10-05T18:07:39.619Z,1.40
2022-10-05T18:10:12.162Z,1.40
2022-10-05T18:12:59.483Z,1.70
2022-10-05T18:15:26.785Z,1.40
2022-10-05T18:17:57.460Z,1.17
2022-10-05T18:20:24.875Z,1.87
2022-10-05T18:22:58.737Z,1.40
2022-10-05T18:25:45.549Z,1.37
2022-10-05T18:28:43.077Z,1.10
2022-10-05T18:31:39.168Z,1.63
2022-10-05T18:34:26.397Z,1.43
2022-10-05T18:37:12.293Z,1.10
2022-10-05T18:39:54.714Z,1.70
2022-10-05T18:42:40.813Z,1.30
2022-10-05T18:45:21.902Z,1.10
2022-10-05T18:47:53.692Z,1.60
2022-10-05T18:50:47.453Z,1.70
2022-10-05T18:54:08.310Z,1.30
2022-10-05T18:56:38.100Z,1.50
2022-10-05T18:59:18.935Z,1.20
2022-10-05T19:02:13.042Z,1.43
2022-10-05T19:05:42.539Z,1.33
2022-10-05T19:08:33.713Z,1.80
2022-10-05T19:11:26.593Z,1.47
2022-10-05T19:14:25.899Z,1.60
2022-10-05T19:17:13.186Z,2.07
2022-10-05T19:20:18.269Z,1.50
2022-10-05T19:23:18.390Z,1.50
2022-10-05T19:26:30.295Z,2.17
2022-10-05T19:29:28.014Z,1.60
2022-10-05T19:32:04.028Z,1.37
2022-10-05T19:34:49.298Z,1.30
2022-10-05T19:37:42.327Z,1.87
2022-10-05T19:40:39.062Z,1.87
2022-10-05T19:43:40.391Z,2.70
2022-10-05T19:46:19.855Z,2.00
2022-10-05T19:48:49.846Z,2.00
2022-10-05T19:51:30.527Z,2.03
2022-10-05T19:54:21.199Z,2.20
2022-10-05T19:56:51.023Z,2.27
2022-10-05T19:59:21.938Z,1.67
2022-10-05T20:02:20.335Z,2.57
2022-10-05T20:04:49.488Z,1.90
2022-10-05T20:07:22.082Z,1.90
2022-10-05T20:10:00.040Z,2.03
2022-10-05T20:12:54.383Z,1.50
2022-10-05T20:15:42.556Z,1.73
2022-10-05T20:18:50.877Z,1.80
2022-10-05T20:21:37.183Z,2.10
2022-10-05T20:24:25.668Z,1.93
2022-10-05T20:27:06.881Z,1.67
2022-10-05T20:29:37.891Z,2.03
2022-10-05T20:32:14.444Z,1.87
2022-10-05T20:34:43.674Z,1.80
2022-10-05T20:37:16.530Z,1.80
2022-10-05T20:39:43.802Z,2.17
2022-10-05T20:42:13.879Z,2.17
2022-10-05T20:44:41.085Z,2.13
2022-10-05T20:47:09.887Z,2.07
2022-10-05T20:49:38.384Z,2.07
2022-10-05T20:52:08.908Z,2.20
2022-10-05T20:54:37.424Z,2.60
2022-10-05T20:57:09.848Z,2.30
2022-10-05T20:59:37.273Z,2.03
2022-10-05T21:02:05.441Z,2.13
2022-10-05T21:04:40.934Z,2.47
2022-10-05T21:07:08.306Z,1.93
2022-10-05T21:09:37.971Z,2.60
2022-10-05T21:12:04.914Z,2.30
2022-10-05T21:14:34.429Z,2.13
2022-10-05T21:17:02.107Z,2.67
2022-10-05T21:19:29.619Z,2.47
2022-10-05T21:21:59.192Z,1.93
2022-10-05T21:24:26.326Z,2.20
2022-10-05T21:26:56.791Z,2.10
2022-10-05T21:29:23.624Z,2.23
2022-10-05T21:31:50.551Z,2.47
2022-10-05T21:34:17.380Z,2.60
2022-10-05T21:36:44.141Z,3.80
2022-10-05T21:39:10.863Z,2.07
2022-10-05T21:41:37.820Z,2.17
2022-10-05T21:44:06.305Z,2.70
2022-10-05T21:46:36.268Z,2.90
2022-10-05T21:49:03.303Z,2.40
2022-10-05T21:51:30.102Z,3.13
2022-10-05T21:54:19.489Z,2.40
2022-10-05T21:56:50.370Z,2.50
2022-10-05T21:59:20.335Z,2.73
2022-10-05T22:01:47.239Z,2.10
2022-10-05T22:04:15.097Z,2.30
2022-10-05T22:06:42.291Z,3.00
2022-10-05T22:09:09.234Z,2.60
2022-10-05T22:11:36.069Z,2.40
2022-10-05T22:14:02.986Z,3.80
2022-10-05T22:16:32.905Z,2.67
2022-10-05T22:19:04.142Z,2.40
2022-10-05T22:21:32.860Z,2.60
2022-10-05T22:24:04.722Z,2.50
2022-10-05T22:26:31.719Z,2.83
2022-10-05T22:28:58.685Z,3.10
2022-10-05T22:31:25.580Z,2.77
2022-10-05T22:33:54.860Z,2.73
2022-10-05T22:36:22.183Z,2.70
2022-10-05T22:38:49.071Z,2.87
2022-10-05T22:41:18.457Z,4.13
2022-10-05T22:43:50.003Z,3.57
2022-10-05T22:46:17.207Z,2.33
2022-10-05T22:48:44.242Z,2.83
2022-10-05T22:51:11.047Z,3.13
2022-10-05T22:53:38.190Z,2.40
2022-10-05T22:56:10.716Z,3.03
2022-10-05T22:58:40.311Z,3.20
2022-10-05T23:01:12.919Z,3.10
2022-10-05T23:03:40.818Z,2.80
2022-10-05T23:06:14.237Z,2.77
2022-10-05T23:08:41.995Z,2.67
2022-10-05T23:11:14.823Z,3.07
2022-10-05T23:13:43.076Z,2.80
2022-10-05T23:16:14.192Z,2.93
2022-10-05T23:18:41.775Z,2.40
2022-10-05T23:21:10.068Z,3.27
2022-10-05T23:23:39.800Z,3.47
2022-10-05T23:26:09.328Z,2.77
2022-10-05T23:28:36.391Z,3.20
2022-10-05T23:31:06.671Z,2.80
2022-10-05T23:33:35.021Z,2.87
2022-10-05T23:36:05.527Z,2.57
2022-10-05T23:38:32.614Z,2.77
2022-10-05T23:40:59.897Z,2.57
2022-10-05T23:43:27.390Z,3.07
2022-10-05T23:45:54.424Z,3.07
2022-10-05T23:48:21.571Z,3.00
2022-10-05T23:50:50.497Z,2.90
2022-10-05T23:53:18.392Z,4.17
2022-10-05T23:55:45.301Z,3.23
2022-10-05T23:58:12.387Z,3.57
